Date,TemperatureHighF,TemperatureAvgF,TemperatureLowF,DewpointHighF,DewpointAvgF,DewpointLowF,HumidityHigh,HumidityAvg,HumidityLow,PressureMaxIn,PressureMinIn,WindSpeedMaxMPH,WindSpeedAvgMPH,GustSpeedMaxMPH,PrecipitationSumIn
2013-1-1,59.9,51.7,43.8,45.3,36.2,19.6,76,58,25,30.14,29.99,11,3,11,0.00
2013-1-2,62.4,52.7,44.3,49.4,35.9,20.9,77,54,24,30.02,29.94,13,3,13,0.00
2013-1-3,60.9,52.4,41.3,51.0,36.9,17.7,80,57,24,30.09,29.94,14,4,14,0.00
2013-1-4,62.0,52.0,42.6,49.4,36.0,17.2,80,56,26,30.17,30.07,9,3,9,0.00
2013-1-5,59.9,51.3,43.2,50.8,38.3,19.0,86,63,38,30.19,30.09,12,3,12,0.01
2013-1-6,57.5,51.3,47.0,51.7,46.5,43.2,93,84,76,30.12,30.03,12,4,12,0.00
2013-1-7,62.3,52.2,44.9,52.1,45.4,40.0,94,78,50,29.99,29.88,18,4,18,0.15
2013-1-8,62.0,53.2,44.1,55.0,46.0,36.7,89,77,57,30.02,29.91,10,2,10,0.00
2013-1-9,60.1,54.6,48.3,55.6,49.7,40.6,95,84,63,30.04,29.93,15,3,15,0.00
2013-1-10,57.2,54.7,51.4,53.7,45.6,35.8,92,72,54,29.99,29.87,36,12,36,0.01
2013-1-11,52.2,45.6,40.6,39.0,29.6,25.8,62,54,39,30.10,29.99,33,6,33,0.00
2013-1-12,55.3,46.6,38.9,38.1,33.8,29.4,79,62,39,30.07,29.97,10,4,15,0.00
2013-1-13,55.6,47.0,38.6,35.6,31.1,24.0,64,54,43,30.06,29.96,11,4,17,0.00
2013-1-14,56.2,47.0,40.8,32.5,18.8,8.8,65,34,20,30.23,30.02,10,4,22,0.00
2013-1-15,55.9,47.7,38.3,39.7,25.3,9.7,72,44,23,30.35,30.22,12,5,17,0.00
2013-1-16,58.1,50.1,41.3,50.9,38.4,26.9,80,65,45,30.25,30.02,10,3,11,0.00
2013-1-17,66.4,56.6,45.2,54.0,39.1,21.3,82,55,20,30.06,29.96,11,2,11,0.00
2013-1-18,64.3,57.8,49.2,52.7,36.8,25.6,76,47,30,30.02,29.96,5,2,9,0.00
2013-1-19,66.0,59.2,52.3,52.1,34.3,24.0,70,41,23,30.07,29.98,10,2,13,0.00
2013-1-20,65.2,57.8,51.0,53.2,35.8,21.8,71,45,27,30.03,29.90,12,2,12,0.00
2013-1-21,67.6,58.3,48.6,53.0,33.0,17.7,77,40,21,29.98,29.90,13,3,13,0.00
2013-1-22,67.8,58.7,49.1,52.4,29.8,15.6,70,35,15,29.99,29.92,12,2,12,0.00
2013-1-23,75.3,63.0,56.5,51.2,39.2,24.0,73,42,26,30.03,29.90,18,2,18,0.00
2013-1-24,65.8,61.4,58.1,56.5,51.4,42.1,84,70,50,30.10,29.98,16,2,16,0.00
2013-1-25,62.9,60.1,57.6,60.8,57.8,54.6,96,92,83,30.02,29.83,19,2,19,0.00
2013-1-26,60.1,58.1,56.5,59.2,57.4,55.5,98,98,96,29.92,29.79,14,4,14,0.45
2013-1-27,57.2,54.9,53.1,56.2,50.1,45.6,99,84,70,29.97,29.90,22,10,22,0.08
2013-1-28,58.4,53.6,48.3,47.8,42.5,36.3,79,66,47,30.09,29.92,22,6,22,0.01
2013-1-29,53.2,48.1,46.8,44.4,40.6,39.3,77,75,72,30.14,30.09,12,5,12,0.00
2013-1-30,60.5,53.3,45.5,50.3,45.7,41.6,86,76,59,30.24,30.12,10,3,14,0.00
2013-1-31,62.4,54.9,47.0,53.7,47.5,40.7,83,76,68,30.15,30.00,5,2,9,0.00
2013-2-1,66.6,56.9,49.4,54.9,49.2,41.5,91,76,51,30.07,30.00,5,2,9,0.00
2013-2-2,61.8,57.3,51.6,55.7,51.8,44.5,90,82,72,30.08,29.99,9,2,12,0.00
2013-2-3,63.2,59.7,54.7,58.3,53.6,48.4,94,81,60,30.03,29.93,12,2,12,0.00
2013-2-4,56.7,53.7,50.7,55.0,52.2,49.7,97,95,91,30.01,29.91,15,2,15,0.01
2013-2-5,55.0,53.5,51.1,51.9,50.2,47.4,96,89,80,30.02,29.90,11,2,11,0.00
2013-2-6,61.8,55.7,50.8,51.9,49.0,47.0,89,78,68,30.02,29.91,14,3,14,0.00
2013-2-7,60.2,54.0,49.1,52.7,48.7,44.8,91,83,69,30.04,29.93,24,6,24,0.00
2013-2-8,55.4,52.0,44.8,49.3,43.9,39.2,87,74,63,29.93,29.81,36,12,36,0.07
2013-2-9,58.6,50.0,42.8,46.4,42.3,39.0,89,76,57,30.02,29.84,13,4,13,0.02
2013-2-10,57.5,50.5,45.7,45.2,41.8,39.7,80,72,57,30.02,29.93,17,4,17,0.00
2013-2-11,59.2,51.3,43.6,48.8,44.2,39.4,86,77,65,30.15,29.96,18,4,18,0.00
2013-2-12,60.9,51.3,42.6,50.5,42.9,29.6,86,74,43,30.25,30.15,14,4,14,0.00
2013-2-13,61.8,51.7,42.5,54.2,45.6,36.7,94,80,63,30.16,30.06,12,3,12,0.00
2013-2-14,61.6,52.9,44.3,54.5,48.5,41.8,93,85,70,30.12,29.97,11,3,11,0.00
2013-2-15,68.4,60.3,48.9,54.7,40.7,21.1,81,52,18,30.07,30.00,13,3,13,0.00
2013-2-16,67.9,61.1,55.4,56.9,37.3,20.7,78,43,20,30.03,29.89,12,3,12,0.00
2013-2-17,59.9,54.8,47.6,53.4,46.7,36.4,84,75,45,29.94,29.85,20,5,20,0.00
2013-2-18,59.5,54.6,52.6,50.5,47.1,42.7,81,76,69,29.97,29.88,17,5,17,0.00
2013-2-19,55.0,52.7,50.1,48.9,43.7,40.4,92,72,62,29.91,29.76,25,6,25,0.01
2013-2-20,57.5,51.5,46.7,46.5,40.0,34.3,91,65,51,29.90,29.59,19,10,50,0.01
2013-2-21,60.1,51.5,46.4,47.8,42.4,36.9,82,71,60,30.00,29.86,15,5,15,0.00
2013-2-22,61.5,51.5,42.1,51.9,44.9,37.6,86,78,67,30.11,30.00,16,4,16,0.00
2013-2-23,59.8,52.6,43.8,51.6,45.9,37.2,86,78,71,30.07,29.86,12,4,12,0.00
2013-2-24,65.5,54.1,45.2,50.8,43.1,23.9,85,68,25,30.10,29.89,17,3,17,0.00
2013-2-25,63.2,53.2,42.6,50.2,39.1,20.5,82,59,38,30.12,30.00,11,3,11,0.00
2013-2-26,61.3,52.5,42.6,52.2,40.9,26.8,85,65,44,30.01,29.90,14,4,14,0.00
2013-2-27,66.0,56.9,48.8,53.4,38.2,19.5,77,52,20,30.17,30.01,15,4,15,0.00
2013-2-28,64.8,57.5,45.8,54.7,38.4,19.8,78,50,27,30.20,30.13,15,4,15,0.00
2013-3-1,72.0,62.7,51.9,52.3,36.4,23.3,62,39,23,30.19,30.05,15,4,15,0.00
2013-3-2,71.5,62.6,54.7,53.0,38.6,25.3,68,42,26,30.10,29.99,11,2,11,0.00
2013-3-3,63.5,57.3,50.8,56.6,48.6,35.5,89,74,43,30.02,29.91,13,3,13,0.00
2013-3-4,62.7,57.7,55.0,54.5,52.2,50.3,87,82,73,30.01,29.93,16,5,16,0.00
2013-3-5,59.2,56.0,54.5,52.4,50.9,48.3,87,83,75,30.04,29.96,18,5,18,0.00
2013-3-6,60.5,55.9,52.9,49.5,47.3,45.3,81,73,62,30.06,29.93,19,3,19,0.00
2013-3-7,58.7,54.8,51.9,54.1,50.3,46.9,91,85,79,29.93,29.77,14,3,14,0.04
2013-3-8,56.5,53.3,50.1,53.0,47.1,42.9,94,80,65,29.96,29.70,38,10,38,0.09
2013-3-9,61.2,55.0,49.9,49.4,47.1,43.6,84,75,62,30.12,29.94,30,6,30,0.15
2013-3-10,62.6,54.8,45.5,54.7,48.1,41.5,86,78,67,30.16,30.06,14,3,14,0.17
2013-3-11,64.7,55.6,48.8,57.3,48.3,39.9,93,77,60,30.09,29.97,11,2,11,0.18
2013-3-12,57.3,52.3,45.4,54.4,50.5,44.3,96,94,89,30.00,29.92,13,2,13,0.01
2013-3-13,56.9,53.6,50.4,55.4,52.6,49.6,98,96,94,30.02,29.95,11,2,11,0.00
2013-3-14,70.9,63.8,49.8,69.9,62.9,49.0,98,97,95,30.00,29.93,13,2,13,0.00
2013-3-15,72.0,67.9,65.3,70.6,66.9,63.8,100,97,94,29.96,29.87,12,2,12,0.00
2013-3-16,67.4,61.6,57.8,66.5,58.5,53.2,97,90,80,29.89,29.82,12,4,12,0.00
2013-3-17,62.7,58.8,56.3,56.3,53.5,51.1,90,83,74,29.92,29.85,14,4,14,0.00
2013-3-18,62.9,58.5,56.6,54.3,52.3,50.2,88,80,71,30.01,29.90,15,4,15,0.00
2013-3-19,64.8,59.7,57.0,57.5,53.4,50.2,91,80,71,30.02,29.95,13,1,13,0.00
2013-3-20,64.5,60.7,57.6,59.8,57.6,55.2,93,90,82,30.02,29.90,13,2,13,0.00
2013-3-21,65.3,60.8,58.3,59.3,57.1,55.7,94,88,78,29.90,29.73,14,5,14,0.00
2013-3-22,62.6,59.5,56.6,56.2,54.0,52.0,88,82,76,29.84,29.73,14,5,16,0.00
2013-3-23,64.5,59.4,55.7,55.8,54.5,51.3,91,84,72,29.93,29.82,15,4,15,0.00
2013-3-24,64.2,59.1,53.9,59.6,56.0,51.9,96,89,80,29.93,29.82,12,2,12,0.00
2013-3-25,65.0,60.2,56.6,60.2,57.2,54.3,95,90,78,29.88,29.82,11,3,11,0.00
2013-3-26,63.4,58.7,56.0,56.7,54.2,52.4,94,85,73,29.89,29.83,13,4,13,0.00
2013-3-27,62.9,58.9,56.5,55.4,53.0,51.6,86,81,74,29.97,29.84,16,3,16,0.00
2013-3-28,65.6,59.4,55.6,58.2,54.7,51.6,91,85,73,30.00,29.92,13,2,13,0.00
2013-3-29,62.9,59.4,57.3,57.2,55.4,53.8,90,87,80,30.04,29.96,16,3,16,0.00
2013-3-30,64.8,59.8,55.7,58.4,55.5,52.4,91,86,77,30.04,29.97,17,3,17,0.00
2013-3-31,65.5,60.1,55.3,58.7,55.6,52.2,91,85,76,30.05,29.98,21,5,21,0.00
2013-4-1,63.4,59.6,56.3,56.6,54.5,50.7,91,84,69,30.08,30.00,24,7,24,0.00
2013-4-2,64.2,59.7,56.6,56.8,54.9,53.2,91,84,73,30.01,29.91,15,4,15,0.00
2013-4-3,64.0,58.5,55.9,57.3,54.7,52.5,92,87,77,30.01,29.93,20,2,20,0.00
2013-4-4,66.1,59.9,56.6,58.2,56.1,54.3,94,88,75,30.02,29.94,13,2,13,0.00
2013-4-5,64.8,60.1,57.5,59.4,56.9,55.1,94,89,80,30.01,29.93,15,4,15,0.00
2013-4-6,64.8,60.6,58.1,58.4,56.3,53.8,91,86,77,29.99,29.90,14,4,14,0.00
2013-4-7,65.2,60.8,58.7,58.9,56.2,54.4,92,85,77,29.90,29.74,15,5,15,0.00
2013-4-8,62.1,58.7,55.6,56.6,52.1,46.9,94,79,63,29.75,29.64,40,11,40,0.00
2013-4-9,65.3,58.4,52.6,55.7,51.1,45.7,83,77,66,29.92,29.75,22,5,22,0.00
2013-4-10,67.8,59.0,49.5,58.2,49.1,38.3,77,70,58,30.00,29.90,12,3,12,0.00
2013-4-11,62.3,58.8,55.6,56.8,49.9,34.9,87,74,39,29.93,29.73,23,8,23,0.00
2013-4-12,64.7,59.7,56.7,56.5,53.6,50.7,87,81,72,29.81,29.70,16,4,16,0.00
2013-4-13,59.8,57.8,55.7,55.4,53.8,50.3,89,87,82,29.82,29.76,18,5,18,0.00
2013-4-14,58.0,56.3,55.3,54.0,51.7,49.2,90,85,79,29.81,29.74,16,6,16,0.00
2013-4-15,62.4,57.1,54.7,55.7,52.9,47.1,95,86,74,29.84,29.76,24,8,24,0.03
2013-4-16,61.5,56.1,52.8,49.8,46.7,43.6,81,71,62,29.91,29.80,26,9,26,0.01
2013-4-17,65.5,57.6,49.2,52.3,45.5,28.6,82,66,33,30.01,29.91,25,6,25,0.00
2013-4-18,76.0,61.6,49.2,55.7,38.5,19.3,70,45,12,30.08,30.01,19,5,19,0.00
2013-4-19,68.3,60.1,49.8,56.0,46.9,31.8,77,62,38,30.05,29.89,10,3,13,0.00
2013-4-20,69.3,60.7,51.6,60.7,54.3,44.7,92,80,70,29.92,29.81,11,2,11,0.00
2013-4-21,64.5,59.3,56.2,58.8,56.1,53.9,95,89,80,29.93,29.85,17,4,17,0.00
2013-4-22,63.1,58.4,56.0,55.9,53.9,52.2,90,85,77,29.93,29.83,17,4,17,0.00
2013-4-23,63.9,60.0,57.6,55.4,53.0,50.3,84,78,72,29.89,29.79,17,5,17,0.00
2013-4-24,61.2,59.5,58.4,55.4,53.9,52.4,88,82,76,29.89,29.81,17,3,17,0.01
2013-4-25,68.3,62.0,56.5,57.4,54.8,52.2,87,78,65,30.02,29.87,19,3,19,0.00
2013-4-26,68.9,62.2,55.1,59.6,56.5,52.2,91,82,71,30.07,30.01,13,2,13,0.00
2013-4-27,62.0,60.1,59.2,57.7,56.4,55.3,91,88,84,30.07,29.93,14,2,14,0.00
2013-4-28,62.6,59.4,57.8,59.1,56.8,55.3,95,91,85,29.94,29.80,13,3,13,0.00
2013-4-29,64.7,60.0,57.8,57.7,55.9,53.9,93,87,77,29.83,29.71,14,5,14,0.00
2013-4-30,63.9,60.2,58.4,57.8,55.1,52.2,89,83,79,29.82,29.75,19,7,19,0.00
2013-5-1,67.6,62.4,60.1,59.5,57.0,54.3,88,82,74,30.01,29.81,14,4,14,0.00
2013-5-2,70.3,63.7,58.6,62.7,58.1,54.8,88,82,72,30.02,29.90,14,3,14,0.00
2013-5-3,74.0,63.6,54.5,62.9,57.4,43.2,95,81,35,29.92,29.72,15,3,15,0.00
2013-5-4,64.0,60.9,58.4,59.9,56.9,55.3,95,87,79,29.78,29.69,24,9,24,0.00
2013-5-5,63.7,61.1,59.6,57.4,56.0,53.9,88,84,75,29.87,29.75,20,7,20,0.00
2013-5-6,65.0,61.1,58.3,61.2,57.8,55.1,95,89,82,29.93,29.83,23,7,23,0.07
2013-5-7,66.3,62.2,58.7,58.9,57.7,56.3,92,85,76,29.99,29.90,33,7,33,0.13
2013-5-8,67.8,62.5,59.2,58.9,56.8,55.5,89,82,72,30.02,29.97,18,4,18,0.02
2013-5-9,65.0,61.6,58.3,58.0,56.1,54.4,88,82,75,30.02,29.96,20,6,20,0.00
2013-5-10,67.6,63.2,60.4,60.5,57.8,55.1,91,83,75,30.00,29.95,17,3,17,0.00
2013-5-11,68.8,63.5,61.0,62.8,60.1,58.5,93,89,80,30.00,29.91,13,2,13,0.00
2013-5-12,65.3,62.7,60.5,64.0,61.2,59.2,97,95,92,29.96,29.83,12,2,12,0.00
2013-5-13,75.1,67.2,60.7,67.0,62.9,59.0,96,87,73,29.88,29.79,11,2,11,0.01
2013-5-14,68.3,63.6,60.2,63.2,59.8,56.6,91,87,80,29.93,29.82,16,4,16,0.00
2013-5-15,66.1,62.1,60.2,58.6,56.5,54.0,88,82,75,29.95,29.88,19,7,19,0.00
2013-5-16,66.8,62.7,60.5,57.9,56.0,53.6,85,79,72,29.90,29.83,17,6,17,0.00
2013-5-17,67.1,62.8,61.0,60.0,56.5,54.0,87,80,76,29.90,29.82,18,5,18,0.00
2013-5-18,69.1,63.7,60.9,61.2,57.8,55.4,88,81,73,29.95,29.90,13,6,17,0.00
2013-5-19,67.6,63.8,60.4,60.5,58.1,55.1,88,82,77,29.91,29.82,12,4,16,0.00
2013-5-20,68.1,63.6,60.4,61.3,59.2,57.5,90,86,78,29.87,29.81,11,4,15,0.00
2013-5-21,67.8,64.1,62.3,62.4,60.0,58.5,92,87,80,29.85,29.76,17,4,17,0.00
2013-5-22,66.3,63.7,62.1,59.5,57.8,55.7,88,81,74,29.77,29.71,20,8,20,0.00
2013-5-23,66.6,62.2,58.1,58.4,55.3,51.9,83,78,71,29.86,29.75,24,8,24,0.00
2013-5-24,64.3,61.6,59.3,56.5,54.1,49.5,83,76,68,29.92,29.83,18,6,18,0.00
2013-5-25,65.5,61.7,59.0,58.5,54.1,49.3,84,76,65,29.93,29.88,21,6,21,0.00
2013-5-26,64.7,61.8,58.9,57.2,54.8,52.4,85,78,73,29.95,29.89,21,5,21,0.00
2013-5-27,66.6,61.9,57.3,60.0,56.7,53.1,88,83,77,29.91,29.76,18,5,18,0.00
2013-5-28,68.6,63.9,60.7,62.2,58.6,56.0,91,83,75,29.78,29.65,21,6,21,0.00
2013-5-29,62.3,62.1,62.1,59.4,59.4,59.4,91,91,91,29.67,29.67,7,4,9,0.00
2013-5-30,62.1,62.1,62.1,59.1,59.1,59.1,90,90,90,29.67,29.67,7,7,13,0.00
2013-5-31,62.1,62.1,62.1,59.1,59.1,59.1,90,90,90,29.67,29.67,7,7,13,0.00
2013-6-1,62.1,62.1,62.1,59.1,59.1,59.1,90,90,90,29.67,29.67,7,7,13,0.00
2013-6-2,66.6,64.2,62.1,60.3,59.3,59.1,90,84,79,29.80,29.67,14,9,20,0.00
2013-6-3,66.0,65.2,62.6,59.3,58.9,56.3,84,80,78,29.81,29.76,15,8,15,0.00
2013-6-4,67.6,64.0,61.8,60.9,58.4,56.3,87,82,75,29.88,29.80,20,6,20,0.00
2013-6-5,69.3,65.3,63.1,61.0,59.9,58.4,89,83,74,29.91,29.84,15,3,15,0.00
2013-6-6,66.0,63.4,62.3,61.2,59.6,58.1,90,88,83,29.87,29.81,20,4,20,0.00
2013-6-7,65.2,62.3,60.2,61.1,59.0,56.9,91,89,85,29.82,29.73,18,4,18,0.00
2013-6-10,68.9,64.1,60.2,60.4,57.5,55.7,86,79,71,29.87,29.81,12,4,18,0.00
2013-6-11,68.9,63.7,59.3,64.4,60.3,57.0,93,89,84,29.87,29.81,12,4,17,0.00
2013-6-12,67.8,63.6,62.3,61.4,59.9,58.6,92,88,77,29.93,29.85,11,5,15,0.00
2013-6-13,67.8,64.5,62.7,60.3,59.3,58.3,87,83,77,29.93,29.83,13,4,18,0.00
2013-6-14,66.4,63.2,61.0,59.8,58.3,56.1,89,84,77,29.85,29.78,12,6,17,0.00
2013-6-15,67.3,63.1,60.7,58.7,56.8,55.7,85,80,72,29.90,29.81,13,6,17,0.00
2013-6-16,69.1,63.8,60.1,60.9,58.1,55.6,88,82,73,29.94,29.88,11,3,17,0.00
2013-6-17,68.1,63.8,61.3,61.4,59.6,57.7,90,86,78,29.89,29.81,15,4,15,0.00
2013-6-18,68.4,63.5,60.5,62.0,59.6,57.9,92,87,79,29.84,29.78,17,4,17,0.00
2013-6-19,71.3,64.9,61.3,62.8,59.4,56.4,89,82,74,29.78,29.73,14,5,14,0.00
2013-6-20,70.9,65.4,61.6,63.8,60.9,58.5,94,86,75,29.78,29.71,14,4,14,0.00
2013-6-21,69.4,65.2,61.8,63.3,60.7,58.4,92,85,78,29.82,29.74,17,5,17,0.00
2013-6-22,68.6,64.5,62.0,62.0,59.7,58.1,90,84,77,29.83,29.75,16,6,16,0.00
2013-6-23,67.6,63.8,60.9,60.9,58.3,55.6,88,82,76,29.81,29.72,22,7,22,0.00
2013-6-24,68.1,65.2,63.1,62.6,59.7,55.9,86,82,77,29.85,29.76,19,6,19,0.00
2013-6-25,72.8,67.8,65.2,65.8,63.3,61.3,91,86,78,29.90,29.82,16,3,16,0.00
2013-6-26,71.5,66.7,65.3,66.0,63.7,62.5,93,90,81,29.91,29.84,14,3,14,0.00
2013-6-27,72.7,67.0,64.7,67.9,64.6,62.9,96,92,84,29.94,29.89,12,3,12,0.00
2013-6-28,70.6,67.4,65.0,68.0,65.4,63.8,98,94,87,29.93,29.80,11,2,11,0.00
2013-6-29,70.9,67.9,66.4,67.6,66.0,64.9,99,94,88,29.81,29.66,11,2,11,0.00
2013-6-30,71.5,67.8,64.8,68.8,65.7,63.3,96,93,86,29.74,29.62,26,4,26,0.01
2013-7-1,75.1,69.0,65.3,69.6,66.3,63.8,96,91,81,29.81,29.73,12,3,12,0.00
2013-7-2,69.6,67.7,66.6,67.0,65.7,64.6,96,93,88,29.92,29.79,19,4,19,0.00
2013-7-3,70.3,67.4,66.0,68.2,65.5,63.9,96,94,90,29.85,29.73,11,1,11,0.00
2013-7-4,71.5,67.2,65.2,66.0,63.8,62.3,93,89,81,29.76,29.70,14,4,14,0.00
2013-7-5,71.1,67.2,65.0,65.5,63.5,62.2,91,88,81,29.77,29.70,15,4,15,0.00
2013-7-6,71.3,67.2,66.0,65.8,63.9,62.8,91,89,83,29.75,29.69,14,4,14,0.00
2013-7-7,72.5,67.8,65.8,66.7,64.5,62.8,93,89,81,29.78,29.69,13,2,13,0.00
2013-7-8,74.9,69.3,66.0,68.7,66.1,64.3,96,90,79,29.84,29.76,12,2,12,0.00
2013-7-9,74.2,69.9,66.4,68.4,66.5,64.6,95,89,80,29.94,29.82,18,4,18,0.00
2013-7-10,71.3,68.8,67.6,68.4,66.3,65.1,94,92,89,29.90,29.82,13,3,13,0.00
2013-7-11,71.8,68.6,67.3,68.9,66.0,64.4,96,91,88,29.88,29.82,13,4,13,0.00
2013-7-12,74.0,69.3,66.6,68.8,65.8,64.4,93,89,81,29.85,29.79,13,4,13,0.00
2013-7-13,70.8,68.3,66.3,67.5,65.0,62.6,92,89,84,29.87,29.80,14,2,14,0.00
2013-7-14,73.5,69.2,66.3,67.4,65.4,63.7,92,88,80,29.84,29.77,13,4,13,0.00
2013-7-15,74.6,69.3,65.3,68.7,65.6,63.2,93,88,81,29.79,29.74,13,3,13,0.00
2013-7-16,72.7,68.8,65.0,66.4,64.6,62.2,91,86,76,29.90,29.77,15,3,15,0.00
2013-7-17,76.0,68.6,61.0,68.4,64.5,59.2,95,87,76,29.93,29.88,11,3,11,0.00
2013-7-18,70.4,67.8,66.0,64.9,63.8,62.2,91,87,79,29.91,29.80,18,3,18,0.00
2013-7-19,68.8,66.1,63.5,64.8,62.9,60.5,93,89,84,29.83,29.77,15,4,15,0.00
2013-7-20,69.8,65.4,63.5,64.9,62.3,60.7,91,90,84,29.80,29.72,12,4,12,0.00
2013-7-21,69.8,66.3,64.8,65.1,63.2,62.3,93,90,84,29.84,29.70,18,4,18,0.00
2013-7-22,72.3,68.1,66.0,67.5,64.5,63.0,91,88,82,29.90,29.82,15,4,15,0.00
2013-7-23,73.2,69.2,66.9,66.7,65.0,63.4,92,87,78,29.94,29.87,15,3,15,0.00
2013-7-24,69.8,67.0,65.0,66.0,63.9,62.6,93,90,84,29.90,29.83,15,2,15,0.00
2013-7-25,69.6,65.7,63.2,64.9,62.9,61.7,96,91,83,29.93,29.84,16,3,16,0.00
2013-7-26,73.7,67.4,65.0,67.9,64.6,63.2,95,91,81,29.99,29.91,13,2,13,0.00
2013-7-27,68.1,65.3,63.1,65.2,62.9,60.5,94,92,88,29.93,29.82,14,3,14,0.00
2013-7-28,68.1,64.2,62.0,63.2,60.9,59.1,94,89,83,29.85,29.81,13,4,14,0.00
2013-7-29,68.6,64.7,62.6,60.8,59.6,57.5,89,84,76,29.96,29.83,14,4,14,0.00
2013-7-30,70.1,65.9,62.1,62.6,60.7,58.5,88,84,76,30.02,29.95,14,2,14,0.00
2013-7-31,68.1,64.8,63.2,62.4,60.3,58.3,91,86,79,30.02,29.93,16,2,16,0.00
2013-8-1,70.8,65.6,63.1,64.3,61.2,59.0,91,86,77,29.93,29.84,17,4,18,0.00
2013-8-2,68.9,65.6,63.9,62.2,60.6,58.5,88,84,77,29.90,29.82,15,5,15,0.00
2013-8-3,70.3,65.7,63.5,63.1,60.6,58.9,89,84,76,29.91,29.86,15,4,15,0.00
2013-8-4,71.1,65.6,62.9,63.9,61.6,59.9,92,87,76,29.93,29.86,15,3,15,0.00
2013-8-5,69.1,65.5,63.5,63.5,61.4,59.9,91,87,80,29.91,29.86,15,3,15,0.00
2013-8-6,69.4,65.0,62.7,62.2,60.7,59.4,90,86,76,29.94,29.87,17,4,17,0.00
2013-8-7,70.8,66.2,64.0,63.2,61.4,59.6,91,85,76,29.99,29.90,15,3,15,0.00
2013-8-8,70.9,65.4,62.7,64.0,61.8,60.3,93,88,78,29.91,29.82,14,4,14,0.00
2013-8-9,67.9,64.9,62.6,61.8,60.2,58.3,89,85,79,29.89,29.82,18,5,18,0.00
2013-8-10,68.3,64.5,62.0,61.0,59.3,56.9,88,83,73,29.94,29.88,15,4,15,0.00
2013-8-11,68.8,64.9,62.3,63.2,60.6,58.7,89,86,80,29.90,29.82,16,3,16,0.00
2013-8-12,68.1,64.9,62.6,63.5,61.1,59.4,92,87,83,29.88,29.82,16,4,16,0.00
2013-8-13,69.1,64.0,62.1,64.4,61.1,59.7,92,91,83,29.89,29.80,14,3,14,0.00
2013-8-14,66.3,64.1,62.6,63.6,61.9,60.5,94,93,90,29.84,29.77,13,2,13,0.00
2013-8-15,67.1,65.1,63.7,64.6,62.9,61.6,96,93,89,29.86,29.79,12,2,12,0.00
2013-8-16,71.8,67.0,62.4,67.1,64.1,60.5,95,91,83,29.88,29.82,12,3,12,0.00
2013-8-17,72.0,67.5,65.0,67.1,64.4,62.6,95,90,81,29.87,29.74,14,2,14,0.00
2013-8-18,70.1,66.0,64.0,65.5,63.2,61.7,96,91,83,29.82,29.74,14,4,14,0.00
2013-8-19,71.3,66.1,64.7,65.4,62.9,61.7,92,89,80,29.85,29.79,14,4,14,0.00
2013-8-20,72.7,67.6,64.5,66.4,64.0,62.1,93,88,79,29.84,29.76,12,3,12,0.00
2013-8-21,74.0,68.2,64.8,68.0,64.6,63.0,95,89,79,29.83,29.76,14,3,14,0.00
2013-8-22,73.2,67.7,63.5,67.9,64.4,61.7,95,89,79,29.83,29.74,10,2,10,0.00
2013-8-23,73.5,67.1,63.2,68.2,64.3,61.4,95,91,81,29.79,29.68,12,2,12,0.00
2013-8-24,70.8,66.0,63.5,66.0,63.2,62.0,95,91,82,29.80,29.71,12,2,12,0.00
2013-8-25,72.5,66.1,62.7,66.5,63.4,61.1,97,91,80,29.82,29.74,11,2,11,0.00
2013-8-26,73.2,68.1,65.5,68.1,65.5,63.5,95,91,83,29.83,29.73,11,3,11,0.00
2013-8-27,74.6,69.3,66.6,69.4,54.9,-99.9,96,84,79,29.76,29.70,10,2,10,0.00
2013-8-28,76.3,70.0,66.3,69.7,66.5,64.5,95,89,79,29.79,29.68,8,2,8,0.00
2013-8-29,74.4,70.5,66.9,69.8,65.9,61.5,92,86,65,29.83,29.77,12,2,12,0.00
2013-8-30,83.0,75.0,69.6,73.5,64.5,-99.9,88,79,72,29.89,29.81,10,1,10,0.00
2013-8-31,78.3,73.9,71.5,73.9,44.3,-99.9,96,76,81,29.87,29.80,9,2,9,0.00
2013-9-1,80.7,73.4,70.6,73.2,70.2,68.7,95,90,77,29.84,29.77,12,2,12,0.00
2013-9-2,83.2,77.3,66.8,82.0,76.5,66.5,100,97,94,29.83,29.73,12,2,12,0.00
2013-9-3,85.1,79.6,74.2,83.0,77.6,71.0,98,94,78,29.82,29.73,7,2,7,0.00
2013-9-4,84.7,79.5,74.6,83.1,76.9,70.1,98,92,74,29.81,29.73,7,1,9,0.00
2013-9-5,80.9,76.1,72.5,74.8,72.3,67.7,96,88,73,29.80,29.73,10,2,10,0.00
2013-9-6,80.3,76.4,73.2,75.7,73.3,69.7,96,90,77,29.77,29.71,18,2,18,0.01
2013-9-7,79.6,64.3,73.7,75.4,47.0,-99.9,96,78,81,29.77,29.71,11,-150,11,0.00
2013-9-8,78.5,73.3,70.6,73.7,70.4,67.6,96,91,77,29.75,29.65,13,2,13,0.01
2013-9-9,74.4,71.2,68.9,70.4,68.0,65.4,96,90,80,29.70,29.64,13,2,13,0.00
2013-9-10,73.3,63.4,50.0,67.4,55.0,-99.9,93,75,50,29.85,29.68,14,-43,14,0.00
2013-9-11,74.9,70.3,68.1,67.2,64.6,62.4,93,82,71,29.91,29.83,16,2,16,0.00
2013-9-12,76.0,71.1,66.9,70.5,67.7,65.4,96,89,76,29.84,29.74,12,2,12,0.00
2013-9-13,76.0,71.9,68.8,73.1,69.1,66.0,97,91,76,29.75,29.59,11,1,11,0.00
2013-9-14,80.1,73.0,69.4,78.4,70.9,67.0,99,94,81,29.63,29.56,11,1,11,0.01
2013-9-15,80.9,75.8,71.3,78.8,73.5,68.9,97,93,78,29.68,29.61,11,1,11,0.00
2013-9-16,80.9,75.5,70.8,78.7,73.3,68.8,100,93,83,29.73,29.67,13,2,13,0.01
2013-9-17,77.0,73.0,68.4,75.5,69.4,63.4,95,89,78,29.73,29.65,13,3,13,0.00
2013-9-18,73.5,68.9,65.0,66.2,63.7,60.0,91,84,75,29.72,29.66,17,5,17,0.00
2013-9-19,72.5,69.5,66.9,66.7,65.4,63.9,92,87,80,29.74,29.67,15,4,15,0.00
2013-9-20,70.3,68.8,67.3,65.9,64.1,61.6,88,85,77,29.80,29.73,16,4,16,0.00
2013-9-21,74.2,69.8,66.9,68.0,63.4,60.1,91,81,65,29.81,29.73,18,4,18,0.00
2013-9-22,74.6,68.8,64.7,67.0,62.9,58.5,93,82,68,29.77,29.70,16,4,16,0.00
2013-9-23,77.2,68.9,62.1,68.4,63.2,57.5,89,82,70,29.81,29.70,9,2,9,0.00
2013-9-24,77.4,70.4,63.5,73.0,64.6,52.7,90,82,56,29.84,29.76,11,3,11,0.00
2013-9-25,70.3,68.4,65.5,67.0,63.9,58.2,95,86,76,29.78,29.64,23,8,23,0.00
2013-9-26,72.5,66.9,63.1,64.0,59.5,55.8,82,77,66,29.79,29.64,22,8,22,0.00
2013-9-27,74.2,66.3,58.4,64.9,58.2,50.9,83,75,62,29.90,29.78,14,4,14,0.00
2013-9-28,75.3,67.2,56.6,66.8,55.5,39.1,79,67,42,29.95,29.87,12,2,12,0.00
2013-9-29,75.8,67.4,57.2,67.5,59.7,47.8,93,77,62,29.96,29.88,11,2,11,0.00
2013-9-30,76.0,69.6,64.2,73.0,47.5,-99.9,98,79,69,29.91,29.77,9,1,9,0.01
2013-10-1,72.0,68.6,66.0,68.6,45.6,-99.9,96,79,80,29.85,29.79,15,6,15,0.00
2013-10-2,71.5,67.4,65.0,64.7,61.5,58.5,87,82,76,29.88,29.80,16,5,16,0.00
2013-10-3,71.1,67.4,65.0,66.1,61.6,58.3,87,82,77,29.84,29.75,19,5,19,0.00
2013-10-4,73.9,68.4,63.7,65.9,62.2,58.2,92,81,73,29.93,29.79,13,2,13,0.00
2013-10-5,87.6,70.2,58.9,65.3,48.3,22.6,95,51,10,29.99,29.92,18,4,18,0.00
2013-10-6,79.4,69.5,58.9,67.0,51.0,27.5,76,54,21,29.96,29.86,11,3,11,0.00
2013-10-7,75.3,67.0,59.9,67.0,57.8,38.7,92,74,39,29.88,29.82,12,3,12,0.00
2013-10-8,68.4,63.7,60.5,61.4,58.4,54.7,95,83,70,29.84,29.74,18,6,18,0.00
2013-10-9,63.7,61.4,58.1,57.5,54.4,50.4,92,78,71,29.74,29.63,37,16,37,0.02
2013-10-10,67.9,61.4,55.4,56.7,53.2,49.8,87,75,61,29.91,29.71,24,6,24,0.06
2013-10-11,69.6,61.3,52.2,61.0,55.7,48.8,89,82,69,29.94,29.84,18,4,18,0.00
2013-10-12,69.8,63.8,59.6,61.8,59.1,55.9,91,85,75,29.88,29.82,13,3,13,0.00
2013-10-13,66.3,62.2,56.6,58.9,56.0,53.1,89,80,68,29.93,29.84,19,4,19,0.00
2013-10-14,71.6,61.7,52.6,65.4,58.3,50.6,95,89,80,29.92,29.80,16,4,16,0.00
2013-10-15,73.9,64.0,53.8,65.3,59.4,51.1,97,85,66,29.87,29.78,9,2,9,0.01
2013-10-16,77.2,68.1,58.1,65.2,44.5,31.6,79,45,25,29.95,29.85,13,3,13,0.00
2013-10-17,72.8,64.7,56.9,64.5,49.5,31.4,89,61,29,29.93,29.84,7,2,7,0.00
2013-10-18,73.0,63.7,54.8,65.8,56.0,42.5,92,77,56,29.93,29.84,10,2,10,0.00
2013-10-19,68.3,61.1,53.2,63.6,59.0,52.4,98,93,81,29.93,29.88,12,1,12,0.00
2013-10-20,67.1,60.6,56.9,62.0,58.5,56.1,98,93,81,29.91,29.83,12,2,12,0.00
2013-10-21,69.1,60.9,54.1,62.3,58.0,53.3,98,90,77,29.91,29.83,11,1,11,0.00
2013-10-22,66.6,61.5,57.6,60.9,58.4,55.9,95,90,81,29.92,29.85,13,2,13,0.00
2013-10-23,66.9,63.5,62.0,60.1,58.2,55.7,90,83,76,29.90,29.83,17,1,17,0.00
2013-10-24,67.9,63.4,61.5,58.9,57.4,56.0,86,81,72,29.97,29.88,14,2,14,0.00
2013-10-25,67.8,63.4,60.7,60.8,58.6,56.4,94,84,75,30.03,29.92,15,3,15,0.00
2013-10-26,62.4,61.1,58.9,60.8,57.4,-99.9,96,93,93,30.00,29.89,12,2,12,0.00
2013-10-27,64.2,60.6,57.6,60.8,58.7,56.3,98,93,86,29.91,29.77,19,4,19,0.00
2013-10-28,63.7,60.7,58.9,59.5,57.0,53.8,96,88,79,29.85,29.77,26,10,26,0.02
2013-10-29,64.0,59.3,55.4,57.0,54.7,51.8,96,85,73,29.93,29.85,12,3,16,0.24
2013-10-30,67.4,59.7,52.5,58.0,54.1,49.3,90,82,71,29.98,29.91,7,2,12,0.00
2013-10-31,69.3,59.7,50.4,61.4,54.5,47.9,93,83,69,30.00,29.90,10,2,10,0.01
2013-11-1,71.3,61.7,52.6,60.8,52.6,44.3,89,73,50,30.01,29.85,14,3,14,0.00
2013-11-2,67.8,61.4,54.7,63.5,55.3,42.1,94,81,50,29.91,29.82,20,4,20,0.00
2013-11-3,66.4,61.8,57.6,58.6,56.2,52.7,95,82,73,29.86,29.75,17,5,17,0.00
2013-11-4,64.8,60.5,56.0,56.5,53.6,51.8,90,78,72,29.86,29.71,17,4,17,0.00
2013-11-5,68.8,59.5,51.7,61.1,53.4,31.0,96,81,37,30.04,29.85,12,2,12,0.00
2013-11-6,68.1,60.9,51.0,61.1,40.3,21.2,84,49,27,30.11,29.99,11,3,13,0.00
2013-11-7,71.1,63.3,54.7,58.8,43.7,19.2,71,51,20,30.02,29.90,8,2,8,0.00
2013-11-8,69.6,61.7,55.0,63.2,52.3,30.1,97,74,34,29.96,29.85,10,3,10,0.00
2013-11-9,74.6,61.4,50.8,71.7,58.2,48.0,99,89,73,29.99,29.92,9,2,9,0.01
2013-11-10,73.0,62.1,53.3,60.9,51.4,38.6,92,70,32,30.05,29.93,9,2,9,0.00
2013-11-11,69.3,60.4,50.4,62.3,54.5,41.1,95,81,58,30.03,29.94,10,2,10,0.00
2013-11-12,68.6,61.6,54.1,62.0,57.5,50.6,93,87,74,30.08,29.96,14,2,14,0.00
2013-11-13,70.8,64.3,55.4,64.8,56.9,47.7,95,78,51,29.96,29.80,9,2,9,0.00
2013-11-14,73.0,65.6,58.6,62.2,53.9,41.7,97,68,43,29.84,29.71,11,2,11,0.00
2013-11-15,63.9,61.9,58.4,60.7,58.7,56.7,98,89,81,29.72,29.61,22,9,22,0.00
2013-11-16,66.1,60.9,56.3,58.0,53.2,49.9,89,76,60,29.87,29.68,19,8,19,0.00
2013-11-17,65.8,59.4,54.2,58.8,53.5,48.4,90,81,70,30.00,29.87,14,4,15,0.00
2013-11-18,66.1,60.2,53.2,59.6,56.0,50.9,93,86,76,30.08,29.97,15,3,16,0.02
2013-11-19,65.5,60.7,58.3,57.8,56.5,54.5,95,86,74,30.01,29.89,15,3,15,0.03
2013-11-20,67.1,61.9,59.0,59.1,57.1,54.8,95,85,73,29.91,29.82,16,4,16,0.04
2013-11-21,62.9,60.4,57.0,60.4,58.4,55.6,98,93,86,29.84,29.78,23,8,23,0.11
2013-11-22,59.6,55.7,52.0,56.1,51.3,46.1,95,85,70,29.86,29.75,18,4,20,0.06
2013-11-23,67.3,58.0,52.0,50.9,48.1,45.5,85,70,53,30.00,29.86,17,2,17,0.01
2013-11-24,66.0,57.1,49.4,54.5,49.3,43.2,84,75,63,30.10,29.99,12,3,13,0.00
2013-11-25,66.8,57.3,47.4,59.2,50.6,41.7,91,79,65,30.15,30.08,12,4,13,0.00
2013-11-26,66.6,58.7,50.8,59.9,53.0,46.4,88,81,64,30.10,29.95,11,3,11,0.00
2013-11-27,68.1,60.8,55.1,60.8,52.1,44.5,92,73,55,29.95,29.80,9,2,9,0.00
2013-11-28,64.7,59.2,53.1,59.2,52.3,40.9,88,79,54,29.98,29.81,9,2,9,0.00
2013-11-29,64.8,59.6,55.9,58.7,54.7,50.8,91,84,74,30.09,29.97,11,2,11,0.09
2013-11-30,67.6,60.2,53.2,60.5,55.4,50.3,92,84,73,30.09,29.99,9,2,9,0.00
2013-12-1,67.6,60.2,52.6,62.6,52.1,37.5,91,75,46,30.12,30.01,11,2,11,0.00
2013-12-2,67.6,60.6,51.4,56.3,41.3,29.8,74,50,32,30.03,29.84,13,2,13,0.00
2013-12-3,61.8,58.9,54.8,57.5,51.8,38.3,90,78,51,29.83,29.70,31,9,31,0.00
2013-12-4,60.5,56.9,51.7,53.8,44.4,39.1,82,63,48,29.90,29.71,32,9,33,0.00
2013-12-5,60.1,54.4,48.2,45.2,40.6,36.6,68,60,49,30.02,29.88,24,7,24,0.00
2013-12-6,59.0,53.0,47.7,44.8,40.0,37.1,67,61,51,30.11,30.02,20,7,20,0.00
2013-12-7,59.2,54.7,49.2,53.7,45.2,38.8,91,71,59,30.05,29.94,39,11,39,0.03
2013-12-8,56.9,52.2,45.4,43.7,40.7,37.3,74,65,57,30.11,30.02,24,6,24,0.00
2013-12-9,61.5,49.9,42.2,38.2,25.1,5.5,77,44,14,30.19,30.09,20,4,20,0.00
2013-12-10,63.2,52.4,43.1,43.8,27.6,9.1,68,40,18,30.16,29.99,15,4,15,0.00
2013-12-11,63.2,56.7,50.1,50.1,37.6,18.5,77,51,25,30.07,30.00,11,2,11,0.00
2013-12-12,63.2,55.5,48.8,56.5,48.5,35.9,91,78,38,30.13,30.06,12,4,13,0.00
2013-12-13,62.9,53.6,45.8,54.6,46.5,35.0,93,77,60,30.16,30.05,11,3,11,0.00
2013-12-14,65.2,55.2,45.4,56.1,44.2,25.0,94,69,29,30.20,30.08,12,3,12,0.00
2013-12-15,66.6,58.5,50.2,55.0,40.4,22.6,78,53,27,30.14,29.97,12,2,12,0.00
2013-12-16,72.8,63.3,54.5,57.6,42.6,27.5,79,49,27,30.03,29.95,16,2,16,0.00
2013-12-17,68.3,61.5,55.7,56.8,50.1,36.5,80,67,44,30.04,29.91,10,1,10,0.00
2013-12-18,65.5,60.3,57.2,60.2,54.0,42.2,89,80,48,29.93,29.79,18,5,18,0.00
2013-12-19,57.6,54.5,47.0,51.9,49.3,44.5,92,83,74,29.80,29.65,34,10,35,0.03
2013-12-20,61.3,53.4,45.8,54.0,48.4,43.3,92,84,73,29.87,29.69,15,4,15,0.00
2013-12-21,62.0,55.0,50.1,52.8,48.9,46.4,88,80,69,30.00,29.85,15,5,15,0.00
2013-12-22,63.7,54.5,46.0,55.7,50.3,43.1,92,86,69,30.16,30.00,12,3,12,0.00
2013-12-23,67.3,57.8,49.4,58.6,48.4,38.3,84,72,36,30.20,30.09,11,2,11,0.00
2013-12-24,67.3,57.8,48.8,56.7,45.4,36.4,78,64,37,30.11,29.99,8,2,8,0.00
2013-12-25,77.2,63.4,55.0,57.6,39.3,23.7,73,43,21,30.08,29.99,12,3,12,0.00
2013-12-26,78.5,61.9,53.8,56.9,34.5,18.4,73,39,11,30.06,29.97,14,3,14,0.00
2013-12-27,67.6,58.9,49.2,57.1,34.1,16.9,77,41,22,30.06,29.94,11,2,11,0.00
2013-12-28,65.3,58.1,52.0,58.2,46.3,23.4,93,68,25,29.97,29.85,16,3,16,0.00
2013-12-29,62.3,54.4,45.5,57.7,49.2,37.2,92,83,53,30.05,29.91,12,3,12,0.00
2013-12-30,65.8,56.5,46.0,54.8,36.3,16.1,70,49,21,30.17,30.05,6,2,6,0.00
2013-12-31,64.5,54.5,45.1,57.0,42.9,27.0,94,67,42,30.12,30.00,7,2,7,0.00
2014-1-1,62.3,54.5,44.1,57.1,51.9,42.8,96,91,81,30.05,29.94,10,2,10,0.02
2014-1-2,71.8,59.8,46.5,69.5,55.9,43.5,97,87,48,30.02,29.91,7,1,7,0.00